createdAt,value
2024-01-29T00:00:56.138Z,32.42
2024-01-29T00:03:23.843Z,30.77
2024-01-29T00:05:51.232Z,31.85
2024-01-29T00:08:18.717Z,28.63
2024-01-29T00:10:46.207Z,30.77
2024-01-29T00:13:13.717Z,36.35
2024-01-29T00:15:42.389Z,35.88
2024-01-29T00:18:09.749Z,28.25
2024-01-29T00:20:37.122Z,29.77
2024-01-29T00:23:04.602Z,31.23
2024-01-29T00:25:32.006Z,34.70
2024-01-29T00:27:59.503Z,28.20
2024-01-29T00:30:26.868Z,38.05
2024-01-29T00:32:54.258Z,29.70
2024-01-29T00:35:21.535Z,38.90
2024-01-29T00:37:49.613Z,35.00
2024-01-29T00:40:17.012Z,32.55
2024-01-29T00:42:44.398Z,32.22
2024-01-29T00:45:11.762Z,32.33
2024-01-29T00:47:39.065Z,33.63
2024-01-29T00:50:06.610Z,39.15
2024-01-29T00:52:34.533Z,34.60
2024-01-29T00:55:02.080Z,38.13
2024-01-29T00:57:29.611Z,34.83
2024-01-29T00:59:57.139Z,39.70
2024-01-29T01:02:25.480Z,36.20
2024-01-29T01:04:52.948Z,35.35
2024-01-29T01:07:20.401Z,39.10
2024-01-29T01:09:47.812Z,30.80
2024-01-29T01:12:15.119Z,34.42
2024-01-29T01:14:42.411Z,33.95
2024-01-29T01:17:09.695Z,36.50
2024-01-29T01:19:37.077Z,39.30
2024-01-29T01:22:04.442Z,37.90
2024-01-29T01:24:31.850Z,40.55
2024-01-29T01:26:59.156Z,36.20
2024-01-29T01:29:26.461Z,37.63
2024-01-29T01:31:53.844Z,31.25
2024-01-29T01:34:21.456Z,38.77
2024-01-29T01:36:48.927Z,38.20
2024-01-29T01:39:16.405Z,35.92
2024-01-29T01:41:50.113Z,38.10
2024-01-29T01:44:17.372Z,28.60
2024-01-29T01:46:44.783Z,37.88
2024-01-29T01:49:12.633Z,39.50
2024-01-29T01:51:40.382Z,36.20
2024-01-29T01:54:08.983Z,37.67
2024-01-29T01:56:37.188Z,37.50
2024-01-29T01:59:08.995Z,35.80
2024-01-29T02:01:36.547Z,43.67
2024-01-29T02:04:04.132Z,35.65
2024-01-29T02:06:31.490Z,37.58
2024-01-29T02:08:59.025Z,36.17
2024-01-29T02:11:26.367Z,34.72
2024-01-29T02:13:53.643Z,33.45
2024-01-29T02:16:24.087Z,34.80
2024-01-29T02:18:51.444Z,39.00
2024-01-29T02:21:18.758Z,34.35
2024-01-29T02:23:46.642Z,36.53
2024-01-29T02:26:17.004Z,32.20
2024-01-29T02:28:44.456Z,37.70
2024-01-29T02:31:11.810Z,36.93
2024-01-29T02:33:39.230Z,30.48
2024-01-29T02:36:06.744Z,35.53
2024-01-29T02:38:52.400Z,33.33
2024-01-29T02:43:46.864Z,36.20
2024-01-29T02:46:14.216Z,34.05
2024-01-29T02:48:42.018Z,28.77
2024-01-29T02:51:09.478Z,33.40
2024-01-29T02:53:36.800Z,39.20
2024-01-29T02:56:04.224Z,36.47
2024-01-29T02:58:32.953Z,43.92
2024-01-29T03:01:00.320Z,29.23
2024-01-29T03:03:27.701Z,40.70
2024-01-29T03:05:55.065Z,42.97
2024-01-29T03:08:22.366Z,39.72
2024-01-29T03:10:49.675Z,37.08
2024-01-29T03:13:17.014Z,36.22
2024-01-29T03:15:46.228Z,43.90
2024-01-29T03:18:13.638Z,43.67
2024-01-29T03:20:41.100Z,37.47
2024-01-29T03:23:08.417Z,46.80
2024-01-29T03:25:35.846Z,40.40
2024-01-29T03:28:03.963Z,42.40
2024-01-29T03:30:31.326Z,41.17
2024-01-29T03:32:58.731Z,43.13
2024-01-29T03:35:26.106Z,37.58
2024-01-29T03:37:53.345Z,42.28
2024-01-29T03:40:20.736Z,32.80
2024-01-29T03:42:48.018Z,44.83
2024-01-29T03:45:15.440Z,42.22
2024-01-29T03:47:42.682Z,34.20
2024-01-29T03:50:10.444Z,43.15
2024-01-29T03:52:37.837Z,30.92
2024-01-29T03:55:05.403Z,42.05
2024-01-29T03:57:32.825Z,36.47
2024-01-29T04:00:00.210Z,43.75
2024-01-29T04:02:27.484Z,44.22
2024-01-29T04:04:54.906Z,40.17
2024-01-29T04:07:22.329Z,44.22
2024-01-29T04:09:49.765Z,40.50
2024-01-29T04:12:17.640Z,36.30
2024-01-29T04:14:44.961Z,39.63
2024-01-29T04:17:13.741Z,38.67
2024-01-29T04:19:41.169Z,32.42
2024-01-29T04:22:09.147Z,44.38
2024-01-29T04:24:36.579Z,42.65
2024-01-29T04:27:03.935Z,42.55
2024-01-29T04:29:31.206Z,44.08
2024-01-29T04:31:58.488Z,38.85
2024-01-29T04:34:25.875Z,37.20
2024-01-29T04:36:53.378Z,45.63
2024-01-29T04:39:20.794Z,51.30
2024-01-29T04:41:48.061Z,39.85
2024-01-29T04:44:16.105Z,45.80
2024-01-29T04:46:43.484Z,42.92
2024-01-29T04:49:11.339Z,52.47
2024-01-29T04:51:39.607Z,42.00
2024-01-29T04:54:07.039Z,41.05
2024-01-29T04:56:34.340Z,40.10
2024-01-29T04:59:01.590Z,42.60
2024-01-29T05:01:29.249Z,43.38
2024-01-29T05:03:57.331Z,44.60
2024-01-29T05:06:24.832Z,43.60
2024-01-29T05:08:52.170Z,33.83
2024-01-29T05:11:19.478Z,35.65
2024-01-29T05:13:46.731Z,29.58
2024-01-29T05:16:14.716Z,34.03
2024-01-29T05:18:42.035Z,32.38
2024-01-29T05:21:09.391Z,36.88
2024-01-29T05:23:36.719Z,33.97
2024-01-29T05:26:05.650Z,36.00
2024-01-29T05:28:32.959Z,39.25
2024-01-29T05:31:00.549Z,42.95
2024-01-29T05:33:28.142Z,34.73
2024-01-29T05:35:56.725Z,37.95
2024-01-29T05:38:24.460Z,32.95
2024-01-29T05:40:51.695Z,38.17
2024-01-29T05:43:19.193Z,34.20
2024-01-29T05:45:47.836Z,33.95
2024-01-29T05:48:15.757Z,36.50
2024-01-29T05:50:43.435Z,30.23
2024-01-29T05:53:11.733Z,32.38
2024-01-29T05:55:39.096Z,34.63
2024-01-29T05:58:07.539Z,34.85
2024-01-29T06:00:35.145Z,36.45
2024-01-29T06:03:02.611Z,25.83
2024-01-29T06:05:30.073Z,39.60
2024-01-29T06:07:57.583Z,25.63
2024-01-29T06:10:25.066Z,26.57
2024-01-29T06:12:52.995Z,27.83
2024-01-29T06:15:20.502Z,24.30
2024-01-29T06:17:47.863Z,29.58
2024-01-29T06:20:18.224Z,33.58
2024-01-29T06:22:47.048Z,26.48
2024-01-29T06:25:14.525Z,33.03
2024-01-29T06:27:42.286Z,29.63
2024-01-29T06:30:09.914Z,30.47
2024-01-29T06:32:37.326Z,26.38
2024-01-29T06:35:05.239Z,32.78
2024-01-29T06:37:32.884Z,30.77
2024-01-29T06:40:00.427Z,30.95
2024-01-29T06:42:27.866Z,31.27
2024-01-29T06:44:56.190Z,33.20
2024-01-29T06:47:23.519Z,28.05
2024-01-29T06:49:50.858Z,28.17
2024-01-29T06:52:19.075Z,30.63
2024-01-29T06:54:46.875Z,18.55
2024-01-29T06:57:14.570Z,27.25
2024-01-29T06:59:41.987Z,28.77
2024-01-29T07:02:09.963Z,31.37
2024-01-29T07:04:37.765Z,31.10
2024-01-29T07:07:05.555Z,29.30
2024-01-29T07:09:33.349Z,28.87
2024-01-29T07:12:00.856Z,30.95
2024-01-29T07:14:28.226Z,28.70
2024-01-29T07:16:56.517Z,33.53
2024-01-29T07:19:28.912Z,33.80
2024-01-29T07:21:56.614Z,25.77
2024-01-29T07:24:24.283Z,30.13
2024-01-29T07:26:51.694Z,24.40
2024-01-29T07:29:19.017Z,26.17
2024-01-29T07:31:47.313Z,22.38
2024-01-29T07:34:15.215Z,21.75
2024-01-29T07:36:42.681Z,33.67
2024-01-29T07:39:13.795Z,21.87
2024-01-29T07:41:41.925Z,22.23
2024-01-29T07:44:09.205Z,29.33
2024-01-29T07:46:36.510Z,26.80
2024-01-29T07:49:05.173Z,24.27
2024-01-29T07:51:32.726Z,25.53
2024-01-29T07:54:00.530Z,25.37
2024-01-29T07:56:28.087Z,25.17
2024-01-29T07:58:55.392Z,24.53
2024-01-29T08:01:23.444Z,28.17
2024-01-29T08:03:51.007Z,22.10
2024-01-29T08:06:18.424Z,21.30
2024-01-29T08:08:45.745Z,19.23
2024-01-29T08:11:13.308Z,22.37
2024-01-29T08:13:40.756Z,27.10
2024-01-29T08:16:08.153Z,24.07
2024-01-29T08:18:35.567Z,28.50
2024-01-29T08:21:03.037Z,21.30
2024-01-29T08:23:30.324Z,26.60
2024-01-29T08:25:57.779Z,23.13
2024-01-29T08:28:24.991Z,27.07
2024-01-29T08:30:52.939Z,29.53
2024-01-29T08:33:20.243Z,24.43
2024-01-29T08:35:47.591Z,22.70
2024-01-29T08:38:15.285Z,23.10
2024-01-29T08:40:42.868Z,26.17
2024-01-29T08:43:10.514Z,31.27
2024-01-29T08:45:37.865Z,23.37
2024-01-29T08:48:06.347Z,26.30
2024-01-29T08:50:33.605Z,28.20
2024-01-29T08:53:01.068Z,25.40
2024-01-29T08:55:28.350Z,23.37
2024-01-29T08:57:55.656Z,29.50
2024-01-29T09:00:23.117Z,31.27
2024-01-29T09:02:51.165Z,28.57
2024-01-29T09:05:18.560Z,27.10
2024-01-29T09:07:45.876Z,26.13
2024-01-29T09:10:13.446Z,29.90
2024-01-29T09:12:40.960Z,27.00
2024-01-29T09:15:08.516Z,30.53
2024-01-29T09:17:35.936Z,24.33
2024-01-29T09:20:06.425Z,33.10
2024-01-29T09:22:33.914Z,31.17
2024-01-29T09:25:02.270Z,29.60
2024-01-29T09:27:30.807Z,25.43
2024-01-29T09:29:58.851Z,31.17
2024-01-29T09:32:26.258Z,19.90
2024-01-29T09:34:53.726Z,32.47
2024-01-29T09:37:21.946Z,25.50
2024-01-29T09:39:49.421Z,26.53
2024-01-29T09:42:18.693Z,26.70
2024-01-29T09:44:48.354Z,23.67
2024-01-29T09:47:16.123Z,29.20
2024-01-29T09:49:46.437Z,27.17
2024-01-29T09:52:14.427Z,26.47
2024-01-29T09:54:42.719Z,26.37
2024-01-29T09:57:13.305Z,26.03
2024-01-29T09:59:41.192Z,20.77
2024-01-29T10:02:09.425Z,25.83
2024-01-29T10:04:37.237Z,22.47
2024-01-29T10:07:05.065Z,21.77
2024-01-29T10:09:32.629Z,30.70
2024-01-29T10:11:59.997Z,22.63
2024-01-29T10:14:29.106Z,20.20
2024-01-29T10:16:56.545Z,23.07
2024-01-29T10:19:24.921Z,20.63
2024-01-29T10:21:52.265Z,22.03
2024-01-29T10:24:19.794Z,22.30
2024-01-29T10:26:47.664Z,25.33
2024-01-29T10:29:18.358Z,25.93
2024-01-29T10:31:45.813Z,19.80
2024-01-29T10:34:13.261Z,22.93
2024-01-29T10:36:41.866Z,19.47
2024-01-29T10:39:14.100Z,19.00
2024-01-29T10:41:44.922Z,21.20
2024-01-29T10:44:13.974Z,22.77
2024-01-29T10:46:41.516Z,24.93
2024-01-29T10:49:09.998Z,19.87
2024-01-29T10:51:37.450Z,24.47
2024-01-29T10:54:04.840Z,26.70
2024-01-29T10:56:32.414Z,20.17
2024-01-29T10:59:02.933Z,23.03
2024-01-29T11:01:33.164Z,23.97
2024-01-29T11:04:01.789Z,22.47
2024-01-29T11:06:29.365Z,27.90
2024-01-29T11:08:59.686Z,21.50
2024-01-29T11:11:29.018Z,22.47
2024-01-29T11:13:56.559Z,23.37
2024-01-29T11:16:24.531Z,21.07
2024-01-29T11:18:52.040Z,20.07
2024-01-29T11:21:25.064Z,19.90
2024-01-29T11:23:54.499Z,22.53
2024-01-29T11:26:23.056Z,18.53
2024-01-29T11:28:57.741Z,19.03
2024-01-29T11:31:25.721Z,23.38
2024-01-29T11:33:53.169Z,22.73
2024-01-29T11:36:23.337Z,23.90
2024-01-29T11:38:50.751Z,21.63
2024-01-29T11:41:20.497Z,20.20
2024-01-29T11:43:48.105Z,21.73
2024-01-29T11:46:16.630Z,18.33
2024-01-29T11:48:44.156Z,22.13
2024-01-29T11:51:11.499Z,18.73
2024-01-29T11:53:38.805Z,20.70
2024-01-29T11:56:06.597Z,19.87
2024-01-29T11:58:33.978Z,19.03
2024-01-29T12:01:01.465Z,18.80
2024-01-29T12:03:35.945Z,21.87
2024-01-29T12:06:03.827Z,22.92
2024-01-29T12:08:31.970Z,20.17
2024-01-29T12:11:01.648Z,18.30
2024-01-29T12:13:29.152Z,20.00
2024-01-29T12:15:57.486Z,22.53
2024-01-29T12:18:26.220Z,19.40
2024-01-29T12:20:54.836Z,19.40
2024-01-29T12:23:23.506Z,19.47
2024-01-29T12:25:58.938Z,21.60
2024-01-29T12:28:27.408Z,23.73
2024-01-29T12:30:58.222Z,24.43
2024-01-29T12:33:33.724Z,23.83
2024-01-29T12:36:18.292Z,19.23
2024-01-29T12:38:46.592Z,23.67
2024-01-29T12:41:14.163Z,20.77
2024-01-29T12:43:41.835Z,21.00
2024-01-29T12:46:16.252Z,25.83
2024-01-29T12:48:44.496Z,22.83
2024-01-29T12:51:12.934Z,20.17
2024-01-29T12:53:40.718Z,21.70
2024-01-29T12:56:08.116Z,20.83
2024-01-29T12:58:35.692Z,23.23
2024-01-29T13:01:03.186Z,21.47
2024-01-29T13:03:30.631Z,19.33
2024-01-29T13:06:00.464Z,18.17
2024-01-29T13:08:28.885Z,21.30
2024-01-29T13:10:56.474Z,18.53
2024-01-29T13:13:24.627Z,23.27
2024-01-29T13:15:55.466Z,23.80
2024-01-29T13:18:23.427Z,20.40
2024-01-29T13:20:50.857Z,21.40
2024-01-29T13:23:18.413Z,25.90
2024-01-29T13:25:45.830Z,25.40
2024-01-29T13:28:13.343Z,20.93
2024-01-29T13:30:40.811Z,23.17
2024-01-29T13:33:09.388Z,23.53
2024-01-29T13:35:36.811Z,22.43
2024-01-29T13:38:04.191Z,24.50
2024-01-29T13:40:31.966Z,23.57
2024-01-29T13:42:59.395Z,24.10
2024-01-29T13:45:26.760Z,21.50
2024-01-29T13:47:54.487Z,23.70
2024-01-29T13:50:21.979Z,24.40
2024-01-29T13:52:49.342Z,27.83
2024-01-29T13:55:17.947Z,22.87
2024-01-29T13:57:45.361Z,26.33
2024-01-29T14:00:14.891Z,29.17
2024-01-29T14:02:42.470Z,27.83
2024-01-29T14:05:10.424Z,21.77
2024-01-29T14:07:38.740Z,25.03
2024-01-29T14:10:06.521Z,24.27
2024-01-29T14:12:33.969Z,23.03
2024-01-29T14:15:04.578Z,24.10
2024-01-29T14:17:32.568Z,24.83
2024-01-29T14:20:01.105Z,24.67
2024-01-29T14:22:29.064Z,27.40
2024-01-29T14:24:57.981Z,22.17
2024-01-29T14:27:25.613Z,23.33
2024-01-29T14:29:52.945Z,28.17
2024-01-29T14:32:20.276Z,25.23
2024-01-29T14:34:47.649Z,23.50
2024-01-29T14:37:15.223Z,26.03
2024-01-29T14:39:43.847Z,25.03
2024-01-29T14:42:11.265Z,30.20
2024-01-29T14:44:38.611Z,32.10
2024-01-29T14:47:05.953Z,30.33
2024-01-29T14:49:33.432Z,31.73
2024-01-29T14:52:03.310Z,33.53
2024-01-29T14:54:30.783Z,27.10
2024-01-29T14:56:58.082Z,31.70
2024-01-29T14:59:25.732Z,29.03
2024-01-29T15:01:53.209Z,29.80
2024-01-29T15:04:20.808Z,25.37
2024-01-29T15:06:48.515Z,27.57
2024-01-29T15:09:16.142Z,27.00
2024-01-29T15:11:46.805Z,28.83
2024-01-29T15:14:14.238Z,26.43
2024-01-29T15:16:41.731Z,27.47
2024-01-29T15:19:09.155Z,27.90
2024-01-29T15:21:36.607Z,29.67
2024-01-29T15:24:03.968Z,28.47
2024-01-29T15:26:32.944Z,28.67
2024-01-29T15:29:00.321Z,25.53
2024-01-29T15:31:30.676Z,27.57
2024-01-29T15:33:58.141Z,24.17
2024-01-29T15:36:25.658Z,25.63
2024-01-29T15:38:53.023Z,27.73
2024-01-29T15:41:20.687Z,31.10
2024-01-29T15:43:48.239Z,28.70
2024-01-29T15:46:15.975Z,29.90
2024-01-29T15:48:43.631Z,33.73
2024-01-29T15:51:12.377Z,35.57
2024-01-29T15:53:39.687Z,33.90
2024-01-29T15:56:07.174Z,40.60
2024-01-29T15:58:34.641Z,36.47
2024-01-29T16:01:02.103Z,36.40
2024-01-29T16:03:29.619Z,42.67
2024-01-29T16:05:57.035Z,39.67
2024-01-29T16:08:24.514Z,43.07
2024-01-29T16:10:52.387Z,39.83
2024-01-29T16:13:19.835Z,43.73
2024-01-29T16:15:47.342Z,38.17
2024-01-29T16:18:15.545Z,36.03
2024-01-29T16:20:43.060Z,42.37
2024-01-29T16:23:10.354Z,42.57
2024-01-29T16:25:37.701Z,40.83
2024-01-29T16:28:07.525Z,38.23
2024-01-29T16:30:36.683Z,40.77
2024-01-29T16:33:04.690Z,39.80
2024-01-29T16:35:32.207Z,43.37
2024-01-29T16:37:59.811Z,38.37
2024-01-29T16:40:27.889Z,33.93
2024-01-29T16:42:55.320Z,44.87
2024-01-29T16:45:22.657Z,38.33
2024-01-29T16:47:49.963Z,32.13
2024-01-29T16:50:17.594Z,43.40
2024-01-29T16:52:45.694Z,49.17
2024-01-29T16:55:13.025Z,40.90
2024-01-29T16:57:40.460Z,41.57
2024-01-29T17:00:08.774Z,43.83
2024-01-29T17:02:36.318Z,43.83
2024-01-29T17:05:04.238Z,42.50
2024-01-29T17:07:32.054Z,43.83
2024-01-29T17:09:59.896Z,45.77
2024-01-29T17:12:27.344Z,48.33
2024-01-29T17:14:54.948Z,43.70
2024-01-29T17:17:22.371Z,48.50
2024-01-29T17:19:50.082Z,48.70
2024-01-29T17:22:17.792Z,42.13
2024-01-29T17:24:46.031Z,45.60
2024-01-29T17:27:13.518Z,41.07
2024-01-29T17:29:41.365Z,44.77
2024-01-29T17:32:09.761Z,45.87
2024-01-29T17:34:41.602Z,39.73
2024-01-29T17:37:09.230Z,44.40
2024-01-29T17:39:36.645Z,45.03
2024-01-29T17:42:05.227Z,44.07
2024-01-29T17:44:32.723Z,48.00
2024-01-29T17:47:00.225Z,48.40
2024-01-29T17:49:27.857Z,49.43
2024-01-29T17:51:55.588Z,39.70
2024-01-29T17:54:23.254Z,55.63
2024-01-29T17:56:51.269Z,45.13
2024-01-29T17:59:18.600Z,46.40
2024-01-29T18:01:46.016Z,45.53
2024-01-29T18:04:13.405Z,50.03
2024-01-29T18:06:48.038Z,49.27
2024-01-29T18:09:15.850Z,51.78
2024-01-29T18:11:43.372Z,53.80
2024-01-29T18:14:10.652Z,55.50
2024-01-29T18:16:38.125Z,53.87
2024-01-29T18:19:06.571Z,47.27
2024-01-29T18:21:34.017Z,52.77
2024-01-29T18:24:02.082Z,51.27
2024-01-29T18:26:29.977Z,47.90
2024-01-29T18:28:58.930Z,53.63
2024-01-29T18:31:26.210Z,57.00
2024-01-29T18:33:53.770Z,58.63
2024-01-29T18:36:22.467Z,55.63
2024-01-29T18:38:49.980Z,54.23
2024-01-29T18:41:22.182Z,62.60
2024-01-29T18:43:49.439Z,51.90
2024-01-29T18:46:17.257Z,54.97
2024-01-29T18:48:44.971Z,51.23
2024-01-29T18:51:12.335Z,52.40
2024-01-29T18:53:39.901Z,47.93
2024-01-29T18:56:07.537Z,55.30
2024-01-29T18:58:35.897Z,53.10
2024-01-29T19:01:03.466Z,50.27
2024-01-29T19:03:30.907Z,49.30
2024-01-29T19:05:58.295Z,52.43
2024-01-29T19:08:25.723Z,45.07
2024-01-29T19:10:53.130Z,49.30
2024-01-29T19:13:20.643Z,48.97
2024-01-29T19:15:48.314Z,53.60
2024-01-29T19:18:16.466Z,50.23
2024-01-29T19:20:44.193Z,49.33
2024-01-29T19:23:11.676Z,45.23
2024-01-29T19:25:39.560Z,50.00
2024-01-29T19:28:07.481Z,48.73
2024-01-29T19:30:35.006Z,49.40
2024-01-29T19:33:02.362Z,55.30
2024-01-29T19:35:30.150Z,50.87
2024-01-29T19:37:57.900Z,47.33
2024-01-29T19:40:25.553Z,50.27
2024-01-29T19:42:52.910Z,52.13
2024-01-29T19:45:20.912Z,54.63
2024-01-29T19:47:49.088Z,46.60
2024-01-29T19:50:17.858Z,46.73
2024-01-29T19:52:46.205Z,48.70
2024-01-29T19:55:14.051Z,49.47
2024-01-29T19:57:42.498Z,47.70
2024-01-29T20:00:10.977Z,49.33
2024-01-29T20:02:38.822Z,56.50
2024-01-29T20:05:06.363Z,49.00
2024-01-29T20:07:34.811Z,52.60
2024-01-29T20:10:02.330Z,51.90
2024-01-29T20:12:30.818Z,52.53
2024-01-29T20:14:58.388Z,48.67
2024-01-29T20:17:26.745Z,46.57
2024-01-29T20:19:54.426Z,49.57
2024-01-29T20:22:21.973Z,47.00
2024-01-29T20:24:49.415Z,48.47
2024-01-29T20:27:16.981Z,52.87
2024-01-29T20:29:45.660Z,50.00
2024-01-29T20:32:13.062Z,49.40
2024-01-29T20:34:40.935Z,49.57
2024-01-29T20:37:08.387Z,51.30
2024-01-29T20:39:35.855Z,47.30
2024-01-29T20:42:03.181Z,53.03
2024-01-29T20:44:30.538Z,48.67
2024-01-29T20:46:58.117Z,53.60
2024-01-29T20:49:26.061Z,51.67
2024-01-29T20:51:53.733Z,53.77
2024-01-29T20:54:21.054Z,52.13
2024-01-29T20:56:48.314Z,53.83
2024-01-29T20:59:15.792Z,57.23
2024-01-29T21:01:47.857Z,44.90
2024-01-29T21:04:15.444Z,47.27
2024-01-29T21:06:42.902Z,49.00
2024-01-29T21:09:11.161Z,54.90
2024-01-29T21:11:38.526Z,48.43
2024-01-29T21:14:05.915Z,48.13
2024-01-29T21:16:33.302Z,51.30
2024-01-29T21:19:01.444Z,58.87
2024-01-29T21:21:29.851Z,54.00
2024-01-29T21:23:57.304Z,47.47
2024-01-29T21:26:28.164Z,48.57
2024-01-29T21:28:55.949Z,48.80
2024-01-29T21:31:23.564Z,46.73
2024-01-29T21:33:50.934Z,44.23
2024-01-29T21:36:19.026Z,53.33
2024-01-29T21:38:46.403Z,49.37
2024-01-29T21:41:14.288Z,46.27
2024-01-29T21:43:41.585Z,51.33
2024-01-29T21:46:11.216Z,48.10
2024-01-29T21:48:41.651Z,48.53
2024-01-29T21:51:09.150Z,52.43
2024-01-29T21:53:36.446Z,43.73
2024-01-29T21:56:04.118Z,49.67
2024-01-29T21:58:31.640Z,51.07
2024-01-29T22:00:59.196Z,50.17
2024-01-29T22:03:26.853Z,45.43
2024-01-29T22:05:54.190Z,45.67
2024-01-29T22:08:21.510Z,44.50
2024-01-29T22:10:48.794Z,49.27
2024-01-29T22:13:16.913Z,40.23
2024-01-29T22:15:44.244Z,45.17
2024-01-29T22:18:11.531Z,44.90
2024-01-29T22:20:38.858Z,43.27
2024-01-29T22:23:06.350Z,39.77
2024-01-29T22:25:33.604Z,50.70
2024-01-29T22:28:01.023Z,51.93
2024-01-29T22:30:28.402Z,39.37
2024-01-29T22:32:55.833Z,45.73
2024-01-29T22:35:23.306Z,45.23
2024-01-29T22:37:50.615Z,50.93
2024-01-29T22:40:18.061Z,47.13
2024-01-29T22:42:45.402Z,43.23
2024-01-29T22:45:12.800Z,44.47
2024-01-29T22:47:40.155Z,41.70
2024-01-29T22:50:10.433Z,43.73
2024-01-29T22:52:37.875Z,48.00
2024-01-29T22:55:05.368Z,40.10
2024-01-29T22:57:32.699Z,39.30
2024-01-29T22:59:59.946Z,34.83
2024-01-29T23:02:27.184Z,41.43
2024-01-29T23:04:54.610Z,38.20
2024-01-29T23:07:22.077Z,37.83
2024-01-29T23:09:49.403Z,39.67
2024-01-29T23:12:16.696Z,35.50
2024-01-29T23:14:44.767Z,36.83
2024-01-29T23:17:12.074Z,42.00
2024-01-29T23:19:39.539Z,34.43
2024-01-29T23:22:08.505Z,46.27
2024-01-29T23:24:35.975Z,39.23
2024-01-29T23:27:03.318Z,40.70
2024-01-29T23:29:30.624Z,36.97
2024-01-29T23:31:58.134Z,40.77
2024-01-29T23:34:25.593Z,37.97
2024-01-29T23:36:52.959Z,37.67
2024-01-29T23:39:20.435Z,41.33
2024-01-29T23:41:47.785Z,37.00
2024-01-29T23:44:15.104Z,42.23
2024-01-29T23:46:42.455Z,42.80
2024-01-29T23:49:09.864Z,37.73
2024-01-29T23:51:37.212Z,35.73
2024-01-29T23:54:05.175Z,39.03
2024-01-29T23:56:32.609Z,38.10
2024-01-29T23:58:59.909Z,39.77
